Terminal Aerodrome Forecast
Issued by NWS

Current Version | Previous Version | Text Only | Print | Product List | Glossary Off
Versions: 1 2 3 4 5 6 7 8 9 10 11 12 13 14 15 16 17 18 19 20 21 22

000
FTUS41 KRLX 240900 AAA
TAFCKB
TAF AMD
KCKB 240922Z 2409/2506 00000KT P6SM SKC
     FM241500 19004KT P6SM FEW250
     FM241800 22008KT P6SM SCT150
     FM250300 24010G15KT P6SM BKN035=

USA.gov is the U.S. government's official web portal to all federal, state and local government web resources and services.